sensor_id;sensor_type;location;lat;lon;timestamp;P1;durP1;ratioP1;P2;durP2;ratioP2
58468;SDS011;44257;44.804;10.220;2023-03-23T00:02:05;2.45;;;1.70;;
58468;SDS011;44257;44.804;10.220;2023-03-23T00:04:31;7.30;;;1.75;;
58468;SDS011;44257;44.804;10.220;2023-03-23T00:06:57;4.55;;;1.65;;
58468;SDS011;44257;44.804;10.220;2023-03-23T00:09:27;2.78;;;1.50;;
58468;SDS011;44257;44.804;10.220;2023-03-23T00:11:55;3.45;;;1.75;;
58468;SDS011;44257;44.804;10.220;2023-03-23T00:14:22;2.03;;;1.20;;
58468;SDS011;44257;44.804;10.220;2023-03-23T00:16:50;2.67;;;1.60;;
58468;SDS011;44257;44.804;10.220;2023-03-23T00:19:16;3.90;;;1.67;;
58468;SDS011;44257;44.804;10.220;2023-03-23T00:21:44;2.30;;;1.10;;
58468;SDS011;44257;44.804;10.220;2023-03-23T00:24:15;2.83;;;1.40;;
58468;SDS011;44257;44.804;10.220;2023-03-23T00:26:46;2.03;;;1.20;;
58468;SDS011;44257;44.804;10.220;2023-03-23T00:29:14;1.67;;;1.02;;
58468;SDS011;44257;44.804;10.220;2023-03-23T00:31:42;2.65;;;1.40;;
58468;SDS011;44257;44.804;10.220;2023-03-23T00:34:12;3.42;;;1.20;;
58468;SDS011;44257;44.804;10.220;2023-03-23T00:36:44;2.78;;;1.33;;
58468;SDS011;44257;44.804;10.220;2023-03-23T00:39:15;3.95;;;1.75;;
58468;SDS011;44257;44.804;10.220;2023-03-23T00:41:45;2.38;;;1.33;;
58468;SDS011;44257;44.804;10.220;2023-03-23T00:44:12;4.07;;;1.40;;
58468;SDS011;44257;44.804;10.220;2023-03-23T00:46:48;1.98;;;1.10;;
58468;SDS011;44257;44.804;10.220;2023-03-23T00:49:18;4.43;;;1.50;;
58468;SDS011;44257;44.804;10.220;2023-03-23T00:51:45;2.72;;;1.40;;
58468;SDS011;44257;44.804;10.220;2023-03-23T00:54:11;3.20;;;1.15;;
58468;SDS011;44257;44.804;10.220;2023-03-23T00:56:37;3.55;;;1.60;;
58468;SDS011;44257;44.804;10.220;2023-03-23T00:59:06;1.92;;;1.08;;
58468;SDS011;44257;44.804;10.220;2023-03-23T01:01:32;2.08;;;1.10;;
58468;SDS011;44257;44.804;10.220;2023-03-23T01:03:59;2.40;;;1.20;;
58468;SDS011;44257;44.804;10.220;2023-03-23T01:06:31;3.53;;;1.40;;
58468;SDS011;44257;44.804;10.220;2023-03-23T01:09:02;3.85;;;1.25;;
58468;SDS011;44257;44.804;10.220;2023-03-23T01:11:28;2.28;;;1.30;;
58468;SDS011;44257;44.804;10.220;2023-03-23T01:13:54;3.65;;;1.65;;
58468;SDS011;44257;44.804;10.220;2023-03-23T01:16:21;3.28;;;1.30;;
58468;SDS011;44257;44.804;10.220;2023-03-23T01:18:47;2.75;;;1.30;;
58468;SDS011;44257;44.804;10.220;2023-03-23T01:21:14;3.00;;;1.20;;
58468;SDS011;44257;44.804;10.220;2023-03-23T01:23:42;3.33;;;1.48;;
58468;SDS011;44257;44.804;10.220;2023-03-23T01:26:09;3.05;;;1.40;;
58468;SDS011;44257;44.804;10.220;2023-03-23T01:28:41;2.33;;;1.23;;
58468;SDS011;44257;44.804;10.220;2023-03-23T01:31:09;2.38;;;1.20;;
58468;SDS011;44257;44.804;10.220;2023-03-23T01:33:38;2.92;;;1.48;;
58468;SDS011;44257;44.804;10.220;2023-03-23T01:36:05;3.80;;;1.60;;
58468;SDS011;44257;44.804;10.220;2023-03-23T01:38:41;4.82;;;1.85;;
58468;SDS011;44257;44.804;10.220;2023-03-23T01:41:12;4.27;;;1.70;;
58468;SDS011;44257;44.804;10.220;2023-03-23T01:46:36;4.18;;;1.90;;
58468;SDS011;44257;44.804;10.220;2023-03-23T01:49:19;3.13;;;1.73;;
58468;SDS011;44257;44.804;10.220;2023-03-23T01:51:54;2.80;;;1.70;;
58468;SDS011;44257;44.804;10.220;2023-03-23T01:54:36;3.67;;;1.75;;
58468;SDS011;44257;44.804;10.220;2023-03-23T01:57:08;4.28;;;1.58;;
58468;SDS011;44257;44.804;10.220;2023-03-23T01:59:44;5.22;;;2.00;;
58468;SDS011;44257;44.804;10.220;2023-03-23T02:02:26;3.05;;;2.05;;
58468;SDS011;44257;44.804;10.220;2023-03-23T02:05:32;3.95;;;1.98;;
58468;SDS011;44257;44.804;10.220;2023-03-23T02:08:18;4.18;;;2.10;;
58468;SDS011;44257;44.804;10.220;2023-03-23T02:10:45;3.78;;;2.10;;
58468;SDS011;44257;44.804;10.220;2023-03-23T02:13:12;3.10;;;2.05;;
58468;SDS011;44257;44.804;10.220;2023-03-23T02:16:25;4.38;;;1.70;;
58468;SDS011;44257;44.804;10.220;2023-03-23T02:33:33;3.35;;;1.80;;
58468;SDS011;44257;44.804;10.220;2023-03-23T02:36:16;4.97;;;1.60;;
58468;SDS011;44257;44.804;10.220;2023-03-23T02:41:21;3.35;;;2.05;;
58468;SDS011;44257;44.804;10.220;2023-03-23T02:43:52;3.55;;;1.77;;
58468;SDS011;44257;44.804;10.220;2023-03-23T02:46:20;3.53;;;1.98;;
58468;SDS011;44257;44.804;10.220;2023-03-23T02:48:47;4.22;;;2.30;;
58468;SDS011;44257;44.804;10.220;2023-03-23T02:51:17;5.55;;;1.88;;
58468;SDS011;44257;44.804;10.220;2023-03-23T02:53:46;4.28;;;2.15;;
58468;SDS011;44257;44.804;10.220;2023-03-23T02:56:14;3.72;;;1.95;;
58468;SDS011;44257;44.804;10.220;2023-03-23T02:58:41;2.95;;;1.65;;
58468;SDS011;44257;44.804;10.220;2023-03-23T03:01:15;2.97;;;1.77;;
58468;SDS011;44257;44.804;10.220;2023-03-23T03:03:42;4.03;;;1.83;;
58468;SDS011;44257;44.804;10.220;2023-03-23T03:06:21;3.30;;;1.70;;
58468;SDS011;44257;44.804;10.220;2023-03-23T03:09:07;3.90;;;1.63;;
58468;SDS011;44257;44.804;10.220;2023-03-23T03:21:34;2.78;;;1.58;;
58468;SDS011;44257;44.804;10.220;2023-03-23T03:24:03;4.18;;;1.77;;
58468;SDS011;44257;44.804;10.220;2023-03-23T03:26:37;3.47;;;1.92;;
58468;SDS011;44257;44.804;10.220;2023-03-23T03:29:22;4.07;;;1.50;;
58468;SDS011;44257;44.804;10.220;2023-03-23T03:31:53;3.65;;;1.67;;
58468;SDS011;44257;44.804;10.220;2023-03-23T03:34:24;3.75;;;1.63;;
58468;SDS011;44257;44.804;10.220;2023-03-23T03:36:51;3.88;;;2.08;;
58468;SDS011;44257;44.804;10.220;2023-03-23T03:39:20;3.40;;;1.90;;
58468;SDS011;44257;44.804;10.220;2023-03-23T03:41:47;3.45;;;2.05;;
58468;SDS011;44257;44.804;10.220;2023-03-23T03:44:14;3.97;;;2.00;;
58468;SDS011;44257;44.804;10.220;2023-03-23T03:46:40;3.83;;;2.15;;
58468;SDS011;44257;44.804;10.220;2023-03-23T03:49:09;5.88;;;2.33;;
58468;SDS011;44257;44.804;10.220;2023-03-23T03:51:40;4.97;;;2.42;;
58468;SDS011;44257;44.804;10.220;2023-03-23T03:54:12;5.93;;;2.17;;
58468;SDS011;44257;44.804;10.220;2023-03-23T03:56:38;6.00;;;2.88;;
58468;SDS011;44257;44.804;10.220;2023-03-23T03:59:24;9.98;;;3.17;;
58468;SDS011;44257;44.804;10.220;2023-03-23T04:02:09;4.82;;;2.67;;
58468;SDS011;44257;44.804;10.220;2023-03-23T04:04:38;7.00;;;3.47;;
58468;SDS011;44257;44.804;10.220;2023-03-23T04:07:05;5.07;;;3.00;;
58468;SDS011;44257;44.804;10.220;2023-03-23T04:09:31;6.95;;;2.75;;
58468;SDS011;44257;44.804;10.220;2023-03-23T04:11:57;8.88;;;3.38;;
58468;SDS011;44257;44.804;10.220;2023-03-23T04:14:41;5.80;;;3.13;;
58468;SDS011;44257;44.804;10.220;2023-03-23T04:17:08;7.80;;;2.35;;
58468;SDS011;44257;44.804;10.220;2023-03-23T04:19:37;4.97;;;2.53;;
58468;SDS011;44257;44.804;10.220;2023-03-23T04:22:04;7.05;;;3.55;;
58468;SDS011;44257;44.804;10.220;2023-03-23T04:24:32;7.25;;;2.70;;
58468;SDS011;44257;44.804;10.220;2023-03-23T04:27:02;5.10;;;3.25;;
58468;SDS011;44257;44.804;10.220;2023-03-23T04:29:29;7.85;;;3.25;;
58468;SDS011;44257;44.804;10.220;2023-03-23T04:32:15;3.83;;;2.13;;
58468;SDS011;44257;44.804;10.220;2023-03-23T04:37:15;5.07;;;2.55;;
58468;SDS011;44257;44.804;10.220;2023-03-23T04:39:40;5.38;;;2.75;;
58468;SDS011;44257;44.804;10.220;2023-03-23T04:42:10;4.82;;;2.70;;
58468;SDS011;44257;44.804;10.220;2023-03-23T04:44:45;5.43;;;2.72;;
58468;SDS011;44257;44.804;10.220;2023-03-23T04:47:24;4.18;;;2.47;;
58468;SDS011;44257;44.804;10.220;2023-03-23T04:49:56;8.82;;;3.05;;
58468;SDS011;44257;44.804;10.220;2023-03-23T04:52:28;5.53;;;2.75;;
58468;SDS011;44257;44.804;10.220;2023-03-23T04:54:56;5.00;;;2.35;;
58468;SDS011;44257;44.804;10.220;2023-03-23T04:57:23;6.93;;;3.05;;
58468;SDS011;44257;44.804;10.220;2023-03-23T05:00:11;6.07;;;2.70;;
58468;SDS011;44257;44.804;10.220;2023-03-23T05:02:44;5.97;;;2.50;;
58468;SDS011;44257;44.804;10.220;2023-03-23T05:05:13;5.30;;;2.55;;
58468;SDS011;44257;44.804;10.220;2023-03-23T05:07:40;6.82;;;2.80;;
58468;SDS011;44257;44.804;10.220;2023-03-23T05:10:07;6.32;;;2.75;;
58468;SDS011;44257;44.804;10.220;2023-03-23T05:12:35;5.97;;;2.78;;
58468;SDS011;44257;44.804;10.220;2023-03-23T05:15:05;5.72;;;2.75;;
58468;SDS011;44257;44.804;10.220;2023-03-23T05:17:35;5.05;;;2.47;;
58468;SDS011;44257;44.804;10.220;2023-03-23T05:20:09;5.75;;;2.90;;
58468;SDS011;44257;44.804;10.220;2023-03-23T05:22:48;5.70;;;3.10;;
58468;SDS011;44257;44.804;10.220;2023-03-23T05:25:18;4.18;;;2.47;;
58468;SDS011;44257;44.804;10.220;2023-03-23T05:27:48;5.60;;;2.85;;
58468;SDS011;44257;44.804;10.220;2023-03-23T05:30:38;5.15;;;2.22;;
58468;SDS011;44257;44.804;10.220;2023-03-23T05:33:07;4.18;;;2.53;;
58468;SDS011;44257;44.804;10.220;2023-03-23T05:35:43;6.00;;;3.20;;
58468;SDS011;44257;44.804;10.220;2023-03-23T05:38:14;6.80;;;2.90;;
58468;SDS011;44257;44.804;10.220;2023-03-23T05:40:41;6.03;;;3.50;;
58468;SDS011;44257;44.804;10.220;2023-03-23T05:43:16;7.55;;;3.25;;
58468;SDS011;44257;44.804;10.220;2023-03-23T05:46:11;5.70;;;3.00;;
58468;SDS011;44257;44.804;10.220;2023-03-23T05:48:38;5.95;;;3.00;;
58468;SDS011;44257;44.804;10.220;2023-03-23T05:51:08;6.68;;;3.25;;
58468;SDS011;44257;44.804;10.220;2023-03-23T05:53:38;7.20;;;3.20;;
58468;SDS011;44257;44.804;10.220;2023-03-23T05:56:04;5.35;;;3.67;;
58468;SDS011;44257;44.804;10.220;2023-03-23T05:58:46;5.57;;;3.05;;
58468;SDS011;44257;44.804;10.220;2023-03-23T06:01:12;9.02;;;2.95;;
58468;SDS011;44257;44.804;10.220;2023-03-23T06:03:39;8.30;;;3.15;;
58468;SDS011;44257;44.804;10.220;2023-03-23T06:06:16;6.68;;;3.65;;
58468;SDS011;44257;44.804;10.220;2023-03-23T06:09:00;53.65;;;6.85;;
58468;SDS011;44257;44.804;10.220;2023-03-23T06:11:41;36.77;;;6.87;;
58468;SDS011;44257;44.804;10.220;2023-03-23T06:14:25;26.23;;;5.10;;
58468;SDS011;44257;44.804;10.220;2023-03-23T06:16:51;35.63;;;5.97;;
58468;SDS011;44257;44.804;10.220;2023-03-23T06:19:17;9.38;;;4.28;;
58468;SDS011;44257;44.804;10.220;2023-03-23T06:21:54;9.07;;;4.45;;
58468;SDS011;44257;44.804;10.220;2023-03-23T06:24:46;5.22;;;3.30;;
58468;SDS011;44257;44.804;10.220;2023-03-23T06:27:15;33.50;;;5.43;;
58468;SDS011;44257;44.804;10.220;2023-03-23T06:29:43;22.55;;;5.22;;
58468;SDS011;44257;44.804;10.220;2023-03-23T06:32:09;19.45;;;4.25;;
58468;SDS011;44257;44.804;10.220;2023-03-23T06:34:38;28.20;;;5.28;;
58468;SDS011;44257;44.804;10.220;2023-03-23T06:37:40;72.10;;;11.00;;
58468;SDS011;44257;44.804;10.220;2023-03-23T06:40:17;27.63;;;5.72;;
58468;SDS011;44257;44.804;10.220;2023-03-23T06:42:50;21.48;;;4.60;;
58468;SDS011;44257;44.804;10.220;2023-03-23T06:45:35;8.32;;;3.47;;
58468;SDS011;44257;44.804;10.220;2023-03-23T06:48:39;6.85;;;2.95;;
58468;SDS011;44257;44.804;10.220;2023-03-23T06:51:08;10.23;;;3.20;;
58468;SDS011;44257;44.804;10.220;2023-03-23T06:53:36;5.75;;;3.00;;
58468;SDS011;44257;44.804;10.220;2023-03-23T06:56:04;6.28;;;2.88;;
58468;SDS011;44257;44.804;10.220;2023-03-23T06:58:31;7.00;;;2.63;;
58468;SDS011;44257;44.804;10.220;2023-03-23T07:00:57;9.95;;;3.30;;
58468;SDS011;44257;44.804;10.220;2023-03-23T07:03:29;4.90;;;2.38;;
58468;SDS011;44257;44.804;10.220;2023-03-23T07:05:57;5.03;;;2.65;;
58468;SDS011;44257;44.804;10.220;2023-03-23T07:08:31;6.68;;;2.88;;
58468;SDS011;44257;44.804;10.220;2023-03-23T07:10:57;12.40;;;3.10;;
58468;SDS011;44257;44.804;10.220;2023-03-23T07:13:26;8.18;;;2.83;;
58468;SDS011;44257;44.804;10.220;2023-03-23T07:18:25;10.55;;;3.22;;
58468;SDS011;44257;44.804;10.220;2023-03-23T07:20:53;13.43;;;2.90;;
58468;SDS011;44257;44.804;10.220;2023-03-23T07:23:22;8.55;;;2.83;;
58468;SDS011;44257;44.804;10.220;2023-03-23T07:26:03;10.35;;;3.45;;
58468;SDS011;44257;44.804;10.220;2023-03-23T07:28:36;10.65;;;4.28;;
58468;SDS011;44257;44.804;10.220;2023-03-23T07:31:15;12.18;;;3.65;;
58468;SDS011;44257;44.804;10.220;2023-03-23T07:33:41;11.68;;;3.40;;
58468;SDS011;44257;44.804;10.220;2023-03-23T07:36:07;13.48;;;4.63;;
58468;SDS011;44257;44.804;10.220;2023-03-23T07:38:35;8.27;;;3.42;;
58468;SDS011;44257;44.804;10.220;2023-03-23T07:41:02;7.05;;;3.10;;
58468;SDS011;44257;44.804;10.220;2023-03-23T07:43:30;5.35;;;3.03;;
58468;SDS011;44257;44.804;10.220;2023-03-23T07:46:08;6.03;;;2.85;;
58468;SDS011;44257;44.804;10.220;2023-03-23T07:48:44;10.13;;;4.03;;
58468;SDS011;44257;44.804;10.220;2023-03-23T07:51:12;11.77;;;3.60;;
58468;SDS011;44257;44.804;10.220;2023-03-23T07:53:39;8.75;;;3.72;;
58468;SDS011;44257;44.804;10.220;2023-03-23T07:56:26;15.15;;;5.60;;
58468;SDS011;44257;44.804;10.220;2023-03-23T07:59:04;9.18;;;5.22;;
58468;SDS011;44257;44.804;10.220;2023-03-23T08:01:31;12.48;;;5.35;;
58468;SDS011;44257;44.804;10.220;2023-03-23T08:04:16;11.65;;;5.38;;
58468;SDS011;44257;44.804;10.220;2023-03-23T08:07:01;11.05;;;5.65;;
58468;SDS011;44257;44.804;10.220;2023-03-23T08:09:53;10.43;;;6.07;;
58468;SDS011;44257;44.804;10.220;2023-03-23T08:12:24;12.13;;;4.95;;
58468;SDS011;44257;44.804;10.220;2023-03-23T08:15:17;12.40;;;6.68;;
58468;SDS011;44257;44.804;10.220;2023-03-23T08:18:09;11.48;;;6.25;;
58468;SDS011;44257;44.804;10.220;2023-03-23T08:20:44;13.05;;;7.22;;
58468;SDS011;44257;44.804;10.220;2023-03-23T08:23:39;12.75;;;6.10;;
58468;SDS011;44257;44.804;10.220;2023-03-23T08:26:27;14.40;;;6.90;;
58468;SDS011;44257;44.804;10.220;2023-03-23T08:28:56;12.35;;;6.43;;
58468;SDS011;44257;44.804;10.220;2023-03-23T08:31:42;9.68;;;6.55;;
58468;SDS011;44257;44.804;10.220;2023-03-23T08:34:25;13.90;;;7.95;;
58468;SDS011;44257;44.804;10.220;2023-03-23T08:37:00;13.45;;;6.50;;
58468;SDS011;44257;44.804;10.220;2023-03-23T08:39:46;13.20;;;6.95;;
58468;SDS011;44257;44.804;10.220;2023-03-23T08:42:34;14.57;;;7.00;;
58468;SDS011;44257;44.804;10.220;2023-03-23T08:45:13;16.73;;;7.07;;
58468;SDS011;44257;44.804;10.220;2023-03-23T08:47:50;13.85;;;7.63;;
58468;SDS011;44257;44.804;10.220;2023-03-23T08:50:38;14.65;;;7.30;;
58468;SDS011;44257;44.804;10.220;2023-03-23T08:53:21;13.52;;;7.45;;
58468;SDS011;44257;44.804;10.220;2023-03-23T08:55:47;11.20;;;7.40;;
58468;SDS011;44257;44.804;10.220;2023-03-23T08:58:33;25.67;;;9.18;;
58468;SDS011;44257;44.804;10.220;2023-03-23T09:01:28;12.85;;;7.63;;
58468;SDS011;44257;44.804;10.220;2023-03-23T09:04:20;11.80;;;7.63;;
58468;SDS011;44257;44.804;10.220;2023-03-23T09:07:09;16.33;;;7.38;;
58468;SDS011;44257;44.804;10.220;2023-03-23T09:09:37;10.57;;;6.93;;
58468;SDS011;44257;44.804;10.220;2023-03-23T09:12:07;10.88;;;7.40;;
58468;SDS011;44257;44.804;10.220;2023-03-23T09:14:34;14.35;;;7.80;;
58468;SDS011;44257;44.804;10.220;2023-03-23T09:17:01;14.80;;;7.63;;
58468;SDS011;44257;44.804;10.220;2023-03-23T09:19:28;12.32;;;6.85;;
58468;SDS011;44257;44.804;10.220;2023-03-23T09:21:55;13.25;;;7.07;;
58468;SDS011;44257;44.804;10.220;2023-03-23T09:24:21;13.63;;;7.95;;
58468;SDS011;44257;44.804;10.220;2023-03-23T09:26:48;15.90;;;8.13;;
58468;SDS011;44257;44.804;10.220;2023-03-23T09:29:14;13.57;;;7.72;;
58468;SDS011;44257;44.804;10.220;2023-03-23T09:31:40;12.88;;;6.75;;
58468;SDS011;44257;44.804;10.220;2023-03-23T09:34:07;21.85;;;8.40;;
58468;SDS011;44257;44.804;10.220;2023-03-23T09:36:35;10.05;;;6.28;;
58468;SDS011;44257;44.804;10.220;2023-03-23T09:39:04;13.85;;;6.72;;
58468;SDS011;44257;44.804;10.220;2023-03-23T09:41:39;14.15;;;7.45;;
58468;SDS011;44257;44.804;10.220;2023-03-23T09:49:30;16.02;;;8.32;;
58468;SDS011;44257;44.804;10.220;2023-03-23T09:52:08;17.80;;;7.22;;
58468;SDS011;44257;44.804;10.220;2023-03-23T09:54:46;11.07;;;7.18;;
58468;SDS011;44257;44.804;10.220;2023-03-23T10:03:13;12.10;;;7.57;;
58468;SDS011;44257;44.804;10.220;2023-03-23T10:05:41;11.48;;;7.72;;
58468;SDS011;44257;44.804;10.220;2023-03-23T10:08:21;16.92;;;7.55;;
58468;SDS011;44257;44.804;10.220;2023-03-23T10:15:48;11.20;;;7.10;;
58468;SDS011;44257;44.804;10.220;2023-03-23T10:18:17;13.00;;;7.88;;
58468;SDS011;44257;44.804;10.220;2023-03-23T10:25:48;13.23;;;7.97;;
58468;SDS011;44257;44.804;10.220;2023-03-23T10:28:34;11.55;;;7.25;;
58468;SDS011;44257;44.804;10.220;2023-03-23T10:31:08;10.88;;;5.85;;
58468;SDS011;44257;44.804;10.220;2023-03-23T10:33:42;11.38;;;6.00;;
58468;SDS011;44257;44.804;10.220;2023-03-23T10:36:24;11.27;;;6.50;;
58468;SDS011;44257;44.804;10.220;2023-03-23T10:39:13;12.52;;;6.95;;
58468;SDS011;44257;44.804;10.220;2023-03-23T10:41:44;16.27;;;7.03;;
58468;SDS011;44257;44.804;10.220;2023-03-23T10:44:19;11.55;;;6.32;;
58468;SDS011;44257;44.804;10.220;2023-03-23T10:49:27;11.68;;;7.53;;
58468;SDS011;44257;44.804;10.220;2023-03-23T10:55:00;12.98;;;8.23;;
58468;SDS011;44257;44.804;10.220;2023-03-23T10:57:33;11.73;;;6.82;;
58468;SDS011;44257;44.804;10.220;2023-03-23T11:00:02;13.73;;;6.93;;
58468;SDS011;44257;44.804;10.220;2023-03-23T11:02:43;16.15;;;7.82;;
58468;SDS011;44257;44.804;10.220;2023-03-23T11:05:20;10.95;;;7.45;;
58468;SDS011;44257;44.804;10.220;2023-03-23T11:07:50;12.20;;;7.40;;
58468;SDS011;44257;44.804;10.220;2023-03-23T11:12:49;11.57;;;7.63;;
58468;SDS011;44257;44.804;10.220;2023-03-23T11:18:03;11.77;;;7.35;;
58468;SDS011;44257;44.804;10.220;2023-03-23T11:20:36;13.70;;;7.75;;
58468;SDS011;44257;44.804;10.220;2023-03-23T11:28:28;13.85;;;8.40;;
58468;SDS011;44257;44.804;10.220;2023-03-23T11:30:57;10.75;;;7.65;;
58468;SDS011;44257;44.804;10.220;2023-03-23T11:33:28;11.60;;;7.97;;
58468;SDS011;44257;44.804;10.220;2023-03-23T11:35:55;11.57;;;8.10;;
58468;SDS011;44257;44.804;10.220;2023-03-23T11:38:22;15.18;;;8.07;;
58468;SDS011;44257;44.804;10.220;2023-03-23T11:40:53;11.90;;;7.10;;
58468;SDS011;44257;44.804;10.220;2023-03-23T11:43:20;13.18;;;7.88;;
58468;SDS011;44257;44.804;10.220;2023-03-23T11:46:02;13.73;;;7.70;;
58468;SDS011;44257;44.804;10.220;2023-03-23T11:51:39;11.25;;;7.45;;
58468;SDS011;44257;44.804;10.220;2023-03-23T11:54:32;10.60;;;6.88;;
58468;SDS011;44257;44.804;10.220;2023-03-23T11:57:06;12.68;;;7.40;;
58468;SDS011;44257;44.804;10.220;2023-03-23T11:59:35;11.55;;;7.32;;
58468;SDS011;44257;44.804;10.220;2023-03-23T12:05:30;12.82;;;7.53;;
58468;SDS011;44257;44.804;10.220;2023-03-23T12:18:54;10.30;;;6.75;;
58468;SDS011;44257;44.804;10.220;2023-03-23T12:26:25;9.75;;;6.65;;
58468;SDS011;44257;44.804;10.220;2023-03-23T12:29:10;11.00;;;6.45;;
58468;SDS011;44257;44.804;10.220;2023-03-23T12:31:49;12.23;;;6.22;;
58468;SDS011;44257;44.804;10.220;2023-03-23T12:34:33;10.32;;;5.93;;
58468;SDS011;44257;44.804;10.220;2023-03-23T12:47:40;11.75;;;6.47;;
58468;SDS011;44257;44.804;10.220;2023-03-23T12:50:30;15.32;;;6.97;;
58468;SDS011;44257;44.804;10.220;2023-03-23T12:53:06;12.52;;;6.65;;
58468;SDS011;44257;44.804;10.220;2023-03-23T12:58:27;11.23;;;6.55;;
58468;SDS011;44257;44.804;10.220;2023-03-23T13:00:59;11.65;;;6.82;;
58468;SDS011;44257;44.804;10.220;2023-03-23T13:03:39;11.82;;;7.18;;
58468;SDS011;44257;44.804;10.220;2023-03-23T13:08:57;13.20;;;6.65;;
58468;SDS011;44257;44.804;10.220;2023-03-23T13:11:39;11.50;;;6.45;;
58468;SDS011;44257;44.804;10.220;2023-03-23T13:28:14;14.65;;;6.53;;
58468;SDS011;44257;44.804;10.220;2023-03-23T13:33:36;11.65;;;6.22;;
58468;SDS011;44257;44.804;10.220;2023-03-23T13:36:10;10.70;;;6.30;;
58468;SDS011;44257;44.804;10.220;2023-03-23T13:38:38;10.10;;;5.95;;
58468;SDS011;44257;44.804;10.220;2023-03-23T13:41:12;8.23;;;4.85;;
58468;SDS011;44257;44.804;10.220;2023-03-23T13:43:40;12.82;;;5.47;;
58468;SDS011;44257;44.804;10.220;2023-03-23T13:46:30;9.88;;;5.70;;
58468;SDS011;44257;44.804;10.220;2023-03-23T13:59:35;11.32;;;6.50;;
58468;SDS011;44257;44.804;10.220;2023-03-23T14:07:54;8.25;;;5.25;;
58468;SDS011;44257;44.804;10.220;2023-03-23T14:10:37;11.25;;;6.10;;
58468;SDS011;44257;44.804;10.220;2023-03-23T14:13:04;13.80;;;5.88;;
58468;SDS011;44257;44.804;10.220;2023-03-23T14:18:13;9.85;;;6.28;;
58468;SDS011;44257;44.804;10.220;2023-03-23T14:20:41;12.98;;;5.50;;
58468;SDS011;44257;44.804;10.220;2023-03-23T14:23:17;9.07;;;5.15;;
58468;SDS011;44257;44.804;10.220;2023-03-23T14:25:44;10.98;;;5.43;;
58468;SDS011;44257;44.804;10.220;2023-03-23T14:28:20;9.77;;;5.38;;
58468;SDS011;44257;44.804;10.220;2023-03-23T14:30:48;8.90;;;5.40;;
58468;SDS011;44257;44.804;10.220;2023-03-23T14:33:19;10.75;;;5.35;;
58468;SDS011;44257;44.804;10.220;2023-03-23T14:35:45;10.65;;;5.53;;
58468;SDS011;44257;44.804;10.220;2023-03-23T14:38:21;8.80;;;5.35;;
58468;SDS011;44257;44.804;10.220;2023-03-23T14:40:50;9.02;;;5.68;;
58468;SDS011;44257;44.804;10.220;2023-03-23T14:43:17;8.45;;;5.20;;
58468;SDS011;44257;44.804;10.220;2023-03-23T14:45:52;9.48;;;5.97;;
58468;SDS011;44257;44.804;10.220;2023-03-23T14:48:19;13.07;;;6.05;;
58468;SDS011;44257;44.804;10.220;2023-03-23T14:50:55;10.77;;;5.65;;
58468;SDS011;44257;44.804;10.220;2023-03-23T14:53:35;12.00;;;6.47;;
58468;SDS011;44257;44.804;10.220;2023-03-23T14:56:11;11.40;;;5.72;;
58468;SDS011;44257;44.804;10.220;2023-03-23T14:58:50;9.43;;;5.78;;
58468;SDS011;44257;44.804;10.220;2023-03-23T15:01:27;9.57;;;5.43;;
58468;SDS011;44257;44.804;10.220;2023-03-23T15:06:31;9.38;;;5.60;;
58468;SDS011;44257;44.804;10.220;2023-03-23T15:09:02;11.90;;;6.28;;
58468;SDS011;44257;44.804;10.220;2023-03-23T15:11:36;13.13;;;6.10;;
58468;SDS011;44257;44.804;10.220;2023-03-23T15:14:10;10.20;;;5.63;;
58468;SDS011;44257;44.804;10.220;2023-03-23T15:16:51;12.43;;;5.68;;
58468;SDS011;44257;44.804;10.220;2023-03-23T15:19:21;10.63;;;6.57;;
58468;SDS011;44257;44.804;10.220;2023-03-23T15:24:37;10.27;;;6.18;;
58468;SDS011;44257;44.804;10.220;2023-03-23T15:27:11;12.38;;;6.53;;
58468;SDS011;44257;44.804;10.220;2023-03-23T15:30:15;12.25;;;6.72;;
58468;SDS011;44257;44.804;10.220;2023-03-23T15:32:40;11.25;;;5.80;;
58468;SDS011;44257;44.804;10.220;2023-03-23T15:35:15;11.68;;;6.22;;
58468;SDS011;44257;44.804;10.220;2023-03-23T15:38:33;10.88;;;5.72;;
58468;SDS011;44257;44.804;10.220;2023-03-23T15:40:55;13.13;;;6.35;;
58468;SDS011;44257;44.804;10.220;2023-03-23T15:43:24;14.60;;;7.20;;
58468;SDS011;44257;44.804;10.220;2023-03-23T15:46:18;14.52;;;6.75;;
58468;SDS011;44257;44.804;10.220;2023-03-23T15:48:49;22.15;;;7.05;;
58468;SDS011;44257;44.804;10.220;2023-03-23T15:51:36;12.90;;;6.15;;
58468;SDS011;44257;44.804;10.220;2023-03-23T15:54:02;13.70;;;6.65;;
58468;SDS011;44257;44.804;10.220;2023-03-23T15:56:28;14.70;;;7.07;;
58468;SDS011;44257;44.804;10.220;2023-03-23T15:58:57;11.70;;;6.00;;
58468;SDS011;44257;44.804;10.220;2023-03-23T16:01:26;13.27;;;6.18;;
58468;SDS011;44257;44.804;10.220;2023-03-23T16:06:21;13.27;;;6.65;;
58468;SDS011;44257;44.804;10.220;2023-03-23T16:08:50;13.77;;;6.85;;
58468;SDS011;44257;44.804;10.220;2023-03-23T16:11:20;13.27;;;6.72;;
58468;SDS011;44257;44.804;10.220;2023-03-23T16:13:47;12.75;;;6.63;;
58468;SDS011;44257;44.804;10.220;2023-03-23T16:16:15;15.95;;;7.90;;
58468;SDS011;44257;44.804;10.220;2023-03-23T16:18:51;15.55;;;8.25;;
58468;SDS011;44257;44.804;10.220;2023-03-23T16:21:17;14.07;;;6.78;;
58468;SDS011;44257;44.804;10.220;2023-03-23T16:23:43;17.30;;;7.60;;
58468;SDS011;44257;44.804;10.220;2023-03-23T16:26:10;15.50;;;6.68;;
58468;SDS011;44257;44.804;10.220;2023-03-23T16:28:39;13.85;;;7.63;;
58468;SDS011;44257;44.804;10.220;2023-03-23T16:31:06;10.43;;;6.13;;
58468;SDS011;44257;44.804;10.220;2023-03-23T16:33:32;14.07;;;6.53;;
58468;SDS011;44257;44.804;10.220;2023-03-23T16:35:57;12.82;;;6.55;;
58468;SDS011;44257;44.804;10.220;2023-03-23T16:38:23;13.05;;;6.43;;
58468;SDS011;44257;44.804;10.220;2023-03-23T16:40:50;22.67;;;6.95;;
58468;SDS011;44257;44.804;10.220;2023-03-23T16:43:15;10.93;;;6.72;;
58468;SDS011;44257;44.804;10.220;2023-03-23T16:45:42;12.88;;;7.18;;
58468;SDS011;44257;44.804;10.220;2023-03-23T16:48:10;18.02;;;7.60;;
58468;SDS011;44257;44.804;10.220;2023-03-23T16:50:37;13.77;;;6.75;;
58468;SDS011;44257;44.804;10.220;2023-03-23T16:53:03;13.70;;;7.00;;
58468;SDS011;44257;44.804;10.220;2023-03-23T16:55:31;14.77;;;7.00;;
58468;SDS011;44257;44.804;10.220;2023-03-23T16:57:57;13.88;;;6.32;;
58468;SDS011;44257;44.804;10.220;2023-03-23T17:00:23;13.07;;;6.53;;
58468;SDS011;44257;44.804;10.220;2023-03-23T17:02:51;13.55;;;6.45;;
58468;SDS011;44257;44.804;10.220;2023-03-23T17:05:18;11.48;;;6.72;;
58468;SDS011;44257;44.804;10.220;2023-03-23T17:07:46;11.30;;;5.28;;
58468;SDS011;44257;44.804;10.220;2023-03-23T17:10:13;9.93;;;5.18;;
58468;SDS011;44257;44.804;10.220;2023-03-23T17:12:40;8.73;;;3.47;;
58468;SDS011;44257;44.804;10.220;2023-03-23T17:15:06;7.72;;;4.30;;
58468;SDS011;44257;44.804;10.220;2023-03-23T17:17:33;9.52;;;3.95;;
58468;SDS011;44257;44.804;10.220;2023-03-23T17:20:00;5.25;;;2.85;;
58468;SDS011;44257;44.804;10.220;2023-03-23T17:22:26;5.85;;;2.25;;
58468;SDS011;44257;44.804;10.220;2023-03-23T17:24:53;2.72;;;1.80;;
58468;SDS011;44257;44.804;10.220;2023-03-23T17:27:20;2.90;;;1.75;;
58468;SDS011;44257;44.804;10.220;2023-03-23T17:29:46;3.38;;;1.85;;
58468;SDS011;44257;44.804;10.220;2023-03-23T17:32:12;3.67;;;1.80;;
58468;SDS011;44257;44.804;10.220;2023-03-23T17:34:38;6.82;;;1.73;;
58468;SDS011;44257;44.804;10.220;2023-03-23T17:37:05;3.25;;;1.73;;